Time;durP1;ratioP1;P1;durP2;ratioP2;P2;SDS_P1;SDS_P2;PMS_P1;PMS_P2;Temp;Humidity;BMP_temperature;BMP_pressure;BME280_temperature;BME280_humidity;BME280_pressure;Samples;Min_cycle;Max_cycle;Signal;HPM_P1;HPM_P2
2023/08/26 00:01:55;;;;;;;5.30;1.67;;;;;;;;;;5005281;28;20030;-67
2023/08/26 00:04:21;;;;;;;3.47;1.67;;;;;;;;;;5008378;28;20025;-67
2023/08/26 00:06:47;;;;;;;2.22;1.50;;;;;;;;;;5006515;28;20426;-67
2023/08/26 00:09:12;;;;;;;3.30;1.67;;;;;;;;;;5007026;28;20033;-67
2023/08/26 00:11:38;;;;;;;3.42;1.70;;;;;;;;;;5001772;28;20579;-67
2023/08/26 00:14:04;;;;;;;4.05;1.88;;;;;;;;;;5005276;28;20041;-67
2023/08/26 00:16:29;;;;;;;3.35;1.70;;;;;;;;;;5027899;28;20029;-67
2023/08/26 00:18:55;;;;;;;5.93;1.90;;;;;;;;;;5009405;28;20045;-67
2023/08/26 00:21:22;;;;;;;9.63;2.15;;;;;;;;;;5026684;28;20558;-67
2023/08/26 00:23:49;;;;;;;5.30;2.28;;;;;;;;;;5026953;28;20124;-67
2023/08/26 00:26:16;;;;;;;4.35;2.22;;;;;;;;;;5013889;28;20031;-67
2023/08/26 00:28:42;;;;;;;4.32;2.15;;;;;;;;;;5027184;28;20021;-67
2023/08/26 00:31:07;;;;;;;3.20;2.10;;;;;;;;;;5026363;28;20585;-67
2023/08/26 00:33:33;;;;;;;4.30;2.45;;;;;;;;;;5026457;28;20360;-67
2023/08/26 00:35:58;;;;;;;5.85;2.20;;;;;;;;;;5027209;28;20056;-67
2023/08/26 00:38:24;;;;;;;7.00;2.30;;;;;;;;;;5024870;28;20041;-67
2023/08/26 00:40:49;;;;;;;5.25;2.10;;;;;;;;;;5026303;28;20044;-67
2023/08/26 00:43:14;;;;;;;3.80;2.22;;;;;;;;;;5026302;28;20029;-67
2023/08/26 00:45:44;;;;;;;8.82;2.35;;;;;;;;;;5026521;28;20830;-67
2023/08/26 00:48:12;;;;;;;3.53;1.95;;;;;;;;;;5026637;28;20423;-67
2023/08/26 00:50:39;;;;;;;5.18;2.50;;;;;;;;;;5019348;28;20095;-67
2023/08/26 00:53:05;;;;;;;12.05;2.20;;;;;;;;;;4994250;28;20504;-67
2023/08/26 00:55:31;;;;;;;4.75;1.80;;;;;;;;;;4978244;28;20011;-67
2023/08/26 00:57:57;;;;;;;5.32;2.22;;;;;;;;;;5013078;28;20054;-67
2023/08/26 01:00:23;;;;;;;3.38;2.05;;;;;;;;;;5011582;28;20125;-67
2023/08/26 01:02:49;;;;;;;3.22;2.00;;;;;;;;;;5002504;28;20037;-67
2023/08/26 01:05:16;;;;;;;5.90;2.10;;;;;;;;;;5026446;28;20087;-67
2023/08/26 01:07:44;;;;;;;2.97;1.50;;;;;;;;;;5026318;28;20028;-67
2023/08/26 01:10:10;;;;;;;5.18;1.77;;;;;;;;;;5026357;28;20021;-67
2023/08/26 01:12:46;;;;;;;3.33;1.88;;;;;;;;;;5015065;28;20029;-67
2023/08/26 01:15:13;;;;;;;5.80;1.88;;;;;;;;;;5007559;28;20628;-67
2023/08/26 01:17:40;;;;;;;2.20;1.70;;;;;;;;;;5026163;28;20136;-67
2023/08/26 01:20:07;;;;;;;4.78;1.75;;;;;;;;;;5025677;28;20964;-67
2023/08/26 01:22:35;;;;;;;2.33;1.80;;;;;;;;;;5025887;28;20032;-67
2023/08/26 01:25:01;;;;;;;4.13;1.63;;;;;;;;;;5007108;28;20037;-67
2023/08/26 01:27:26;;;;;;;2.05;1.58;;;;;;;;;;5008094;28;20030;-67
2023/08/26 01:29:51;;;;;;;3.55;1.60;;;;;;;;;;5025194;28;20621;-67
2023/08/26 01:32:33;;;;;;;3.17;1.80;;;;;;;;;;5024554;28;20040;-67
2023/08/26 01:34:59;;;;;;;4.15;1.95;;;;;;;;;;5025382;28;20018;-67
2023/08/26 01:37:26;;;;;;;2.50;1.70;;;;;;;;;;5025745;28;20061;-67
2023/08/26 01:39:54;;;;;;;3.28;1.52;;;;;;;;;;5025709;28;20030;-67
2023/08/26 01:42:23;;;;;;;2.55;1.42;;;;;;;;;;5025166;28;20451;-67
2023/08/26 01:44:48;;;;;;;2.72;1.55;;;;;;;;;;5024795;28;20037;-67
2023/08/26 01:47:15;;;;;;;6.82;1.90;;;;;;;;;;5020988;28;20113;-67
2023/08/26 01:49:40;;;;;;;3.10;1.30;;;;;;;;;;5006383;28;20037;-67
2023/08/26 01:52:06;;;;;;;6.03;1.73;;;;;;;;;;5005358;28;20059;-67
2023/08/26 01:54:31;;;;;;;2.67;1.40;;;;;;;;;;5005614;28;20530;-67
2023/08/26 01:56:57;;;;;;;2.15;1.50;;;;;;;;;;5005589;28;20030;-67
2023/08/26 01:59:22;;;;;;;3.38;1.55;;;;;;;;;;5005916;28;20034;-67
2023/08/26 02:01:47;;;;;;;3.05;1.60;;;;;;;;;;5005292;28;20533;-67
2023/08/26 02:04:13;;;;;;;4.15;1.70;;;;;;;;;;5005736;28;20022;-67
2023/08/26 02:06:40;;;;;;;3.08;1.77;;;;;;;;;;5021464;28;20064;-67
2023/08/26 02:09:06;;;;;;;3.17;1.65;;;;;;;;;;5024623;28;20060;-67
2023/08/26 02:11:32;;;;;;;6.65;1.70;;;;;;;;;;5024938;28;20522;-67
2023/08/26 02:13:57;;;;;;;5.18;2.00;;;;;;;;;;5020724;28;20063;-67
2023/08/26 02:16:22;;;;;;;3.95;1.92;;;;;;;;;;5025732;28;20455;-67
2023/08/26 02:18:48;;;;;;;8.40;2.17;;;;;;;;;;5025813;28;20037;-67
2023/08/26 02:21:14;;;;;;;6.03;2.00;;;;;;;;;;5026935;28;20029;-67
2023/08/26 02:23:39;;;;;;;3.47;1.80;;;;;;;;;;5031349;28;20051;-67
2023/08/26 02:26:05;;;;;;;2.75;1.60;;;;;;;;;;5033195;28;20044;-67
2023/08/26 02:28:30;;;;;;;6.43;1.90;;;;;;;;;;5026671;28;20064;-67
2023/08/26 02:30:55;;;;;;;3.80;2.00;;;;;;;;;;5024720;28;20060;-67
2023/08/26 02:33:21;;;;;;;5.03;1.75;;;;;;;;;;5024622;28;20618;-67
2023/08/26 02:35:47;;;;;;;3.35;1.58;;;;;;;;;;5025137;28;20026;-67
2023/08/26 02:38:13;;;;;;;3.22;1.67;;;;;;;;;;5024930;28;20033;-67
2023/08/26 02:40:38;;;;;;;3.47;1.40;;;;;;;;;;5025087;28;20098;-67
2023/08/26 02:43:04;;;;;;;3.10;1.52;;;;;;;;;;5024294;28;20446;-67
2023/08/26 02:45:30;;;;;;;3.53;1.83;;;;;;;;;;5024789;28;20585;-67
2023/08/26 02:47:57;;;;;;;4.85;1.70;;;;;;;;;;5024400;28;20041;-67
2023/08/26 02:50:24;;;;;;;3.38;1.33;;;;;;;;;;5025082;28;20029;-67
2023/08/26 02:52:49;;;;;;;3.08;1.58;;;;;;;;;;5023741;28;20063;-67
2023/08/26 02:55:15;;;;;;;2.28;1.55;;;;;;;;;;5004602;28;20021;-67
2023/08/26 02:57:41;;;;;;;3.70;1.45;;;;;;;;;;4994833;28;20053;-67
2023/08/26 03:00:07;;;;;;;1.90;1.25;;;;;;;;;;5005250;28;20228;-67
2023/08/26 03:02:32;;;;;;;4.50;1.58;;;;;;;;;;5004627;28;20088;-67
2023/08/26 03:04:57;;;;;;;3.05;1.52;;;;;;;;;;5007577;28;20033;-67
2023/08/26 03:07:23;;;;;;;2.13;1.15;;;;;;;;;;5024579;28;20092;-67
2023/08/26 03:09:48;;;;;;;3.10;1.40;;;;;;;;;;5024544;28;20033;-67
2023/08/26 03:12:13;;;;;;;2.08;1.30;;;;;;;;;;5024208;28;20107;-67
2023/08/26 03:14:39;;;;;;;2.00;1.40;;;;;;;;;;5020083;28;20033;-67
2023/08/26 03:17:04;;;;;;;3.30;1.35;;;;;;;;;;5006236;28;20095;-67
2023/08/26 03:19:29;;;;;;;4.07;1.35;;;;;;;;;;5025348;28;20112;-67
2023/08/26 03:21:55;;;;;;;4.70;1.67;;;;;;;;;;5027945;28;20414;-67
2023/08/26 03:24:20;;;;;;;2.00;1.23;;;;;;;;;;5010688;28;20031;-67
2023/08/26 03:26:45;;;;;;;4.28;1.60;;;;;;;;;;5027738;28;20128;-67
2023/08/26 03:29:11;;;;;;;3.97;1.60;;;;;;;;;;5027559;28;20037;-67
2023/08/26 03:31:38;;;;;;;4.50;1.65;;;;;;;;;;5027455;28;20041;-67
2023/08/26 03:34:03;;;;;;;2.40;1.60;;;;;;;;;;5027736;28;20048;-67
2023/08/26 03:36:29;;;;;;;2.53;1.80;;;;;;;;;;5027975;28;20558;-67
2023/08/26 03:38:55;;;;;;;3.92;1.65;;;;;;;;;;5027744;28;20112;-67
2023/08/26 03:41:20;;;;;;;3.17;1.70;;;;;;;;;;5028049;28;20041;-67
2023/08/26 03:43:46;;;;;;;6.28;1.90;;;;;;;;;;5028307;28;20457;-67
2023/08/26 03:46:11;;;;;;;3.92;1.83;;;;;;;;;;5030820;28;20032;-67
2023/08/26 03:48:36;;;;;;;3.78;1.52;;;;;;;;;;5032206;28;20033;-67
2023/08/26 03:51:02;;;;;;;5.47;1.88;;;;;;;;;;5036707;28;20033;-67
2023/08/26 03:53:28;;;;;;;2.70;1.60;;;;;;;;;;5022385;28;20034;-67
2023/08/26 03:55:53;;;;;;;3.55;2.22;;;;;;;;;;5006049;28;20622;-67
2023/08/26 03:58:19;;;;;;;2.75;1.50;;;;;;;;;;5007116;28;20026;-67
2023/08/26 04:00:44;;;;;;;2.75;1.63;;;;;;;;;;4996296;28;20393;-67
2023/08/26 04:03:10;;;;;;;3.60;2.00;;;;;;;;;;5008052;28;20038;-67
2023/08/26 04:05:36;;;;;;;3.80;1.77;;;;;;;;;;5006841;28;20439;-67
2023/08/26 04:08:01;;;;;;;2.80;1.60;;;;;;;;;;4990029;28;20038;-67
2023/08/26 04:10:26;;;;;;;7.50;1.77;;;;;;;;;;5008081;28;20134;-67
2023/08/26 04:12:52;;;;;;;10.35;1.83;;;;;;;;;;5007657;28;20076;-67
2023/08/26 04:15:18;;;;;;;2.55;1.70;;;;;;;;;;5007385;28;20057;-67
2023/08/26 04:17:44;;;;;;;4.13;1.60;;;;;;;;;;5006455;28;20034;-67
2023/08/26 04:20:11;;;;;;;3.67;1.70;;;;;;;;;;5007222;28;20045;-67
2023/08/26 04:22:37;;;;;;;2.40;1.50;;;;;;;;;;5007093;28;20056;-67
2023/08/26 04:25:03;;;;;;;3.40;1.73;;;;;;;;;;5007387;28;20523;-67
2023/08/26 04:27:28;;;;;;;3.42;2.05;;;;;;;;;;5007495;28;20040;-67
2023/08/26 04:29:54;;;;;;;3.30;2.15;;;;;;;;;;4988324;28;20042;-67
2023/08/26 04:32:19;;;;;;;6.10;1.85;;;;;;;;;;5002142;28;20045;-67
2023/08/26 04:34:45;;;;;;;3.47;1.63;;;;;;;;;;5005953;28;20539;-67
2023/08/26 04:37:12;;;;;;;4.88;1.80;;;;;;;;;;5026981;28;20037;-67
2023/08/26 04:39:37;;;;;;;3.80;1.88;;;;;;;;;;5023261;28;20112;-67
2023/08/26 04:42:03;;;;;;;2.75;1.88;;;;;;;;;;5016921;28;20479;-67
2023/08/26 04:44:28;;;;;;;3.58;1.73;;;;;;;;;;5026798;28;20052;-67
2023/08/26 04:46:54;;;;;;;2.25;1.45;;;;;;;;;;5012931;28;20037;-67
2023/08/26 04:49:19;;;;;;;3.55;1.65;;;;;;;;;;5027275;28;20033;-67
2023/08/26 04:51:54;;;;;;;4.53;1.95;;;;;;;;;;5020305;28;20076;-67
2023/08/26 04:54:21;;;;;;;3.53;2.00;;;;;;;;;;5003984;28;20091;-67
2023/08/26 04:56:47;;;;;;;4.05;1.83;;;;;;;;;;5026448;28;20120;-67
2023/08/26 04:59:12;;;;;;;3.47;1.63;;;;;;;;;;5026705;28;20120;-66
2023/08/26 05:01:38;;;;;;;4.38;1.88;;;;;;;;;;5026387;28;20052;-67
2023/08/26 05:04:04;;;;;;;5.13;1.83;;;;;;;;;;5026613;28;20056;-67
2023/08/26 05:06:29;;;;;;;3.22;1.90;;;;;;;;;;5026478;28;20478;-67
2023/08/26 05:08:54;;;;;;;5.38;2.00;;;;;;;;;;5008517;28;20411;-67
2023/08/26 05:11:20;;;;;;;5.55;1.90;;;;;;;;;;5026951;28;20080;-67
2023/08/26 05:13:45;;;;;;;2.95;1.85;;;;;;;;;;5028860;28;20041;-67
2023/08/26 05:16:10;;;;;;;4.78;1.70;;;;;;;;;;5034553;28;20029;-67
2023/08/26 05:18:36;;;;;;;4.28;1.90;;;;;;;;;;5031760;28;20045;-67
2023/08/26 05:21:01;;;;;;;2.70;1.77;;;;;;;;;;5026912;28;20459;-67
2023/08/26 05:23:27;;;;;;;6.25;1.75;;;;;;;;;;5026223;28;20088;-67
2023/08/26 05:25:52;;;;;;;2.00;1.65;;;;;;;;;;5025392;28;20030;-67
2023/08/26 05:28:17;;;;;;;6.60;1.77;;;;;;;;;;5008892;28;20048;-67
2023/08/26 05:30:43;;;;;;;5.78;2.05;;;;;;;;;;5025107;28;20111;-67
2023/08/26 05:33:08;;;;;;;3.70;1.92;;;;;;;;;;5025563;28;20426;-67
2023/08/26 05:35:34;;;;;;;3.55;2.20;;;;;;;;;;5025763;28;20033;-67
2023/08/26 05:37:59;;;;;;;4.97;2.00;;;;;;;;;;5025715;28;20025;-67
2023/08/26 05:40:28;;;;;;;3.83;1.98;;;;;;;;;;5025746;28;20025;-67
2023/08/26 05:42:55;;;;;;;3.03;1.90;;;;;;;;;;5024562;28;20036;-67
2023/08/26 05:45:21;;;;;;;2.25;1.90;;;;;;;;;;5025373;28;20049;-67
2023/08/26 05:47:46;;;;;;;5.63;2.50;;;;;;;;;;5007445;28;20038;-67
2023/08/26 05:50:12;;;;;;;6.38;1.80;;;;;;;;;;5025633;28;20081;-67
2023/08/26 05:52:37;;;;;;;3.58;1.65;;;;;;;;;;5005988;28;20021;-67
2023/08/26 05:55:03;;;;;;;5.70;1.85;;;;;;;;;;4997989;28;20038;-67
2023/08/26 05:57:28;;;;;;;4.93;2.00;;;;;;;;;;5005654;28;20034;-67
2023/08/26 05:59:53;;;;;;;2.85;1.85;;;;;;;;;;4995382;28;20512;-67
2023/08/26 06:02:19;;;;;;;2.40;1.70;;;;;;;;;;4998698;28;20415;-67
2023/08/26 06:04:44;;;;;;;4.93;1.80;;;;;;;;;;4998072;28;20502;-67
2023/08/26 06:07:09;;;;;;;4.03;1.73;;;;;;;;;;5005957;28;20061;-67
2023/08/26 06:09:35;;;;;;;2.28;1.50;;;;;;;;;;5005578;28;20069;-67
2023/08/26 06:12:00;;;;;;;2.88;1.88;;;;;;;;;;5004887;28;20046;-67
2023/08/26 06:14:25;;;;;;;6.13;1.70;;;;;;;;;;5005176;28;20415;-67
2023/08/26 06:16:51;;;;;;;2.60;1.70;;;;;;;;;;4986645;28;20149;-67
2023/08/26 06:19:16;;;;;;;4.88;1.80;;;;;;;;;;5006113;28;20033;-67
2023/08/26 06:21:41;;;;;;;5.32;1.67;;;;;;;;;;5005760;28;20633;-67
2023/08/26 06:24:07;;;;;;;3.95;1.48;;;;;;;;;;5002607;28;20087;-67
2023/08/26 06:26:33;;;;;;;4.07;1.40;;;;;;;;;;4996326;28;20065;-67
2023/08/26 06:28:58;;;;;;;3.63;1.65;;;;;;;;;;5002145;28;20033;-67
2023/08/26 06:31:23;;;;;;;5.68;1.75;;;;;;;;;;5004044;28;20053;-67
2023/08/26 06:33:49;;;;;;;3.42;1.70;;;;;;;;;;4970119;28;20069;-67
2023/08/26 06:36:15;;;;;;;5.28;1.73;;;;;;;;;;4981562;28;20038;-67
2023/08/26 06:38:40;;;;;;;4.38;1.63;;;;;;;;;;4981248;28;20056;-67
2023/08/26 06:41:05;;;;;;;4.15;1.35;;;;;;;;;;4993098;28;20085;-67
2023/08/26 06:43:31;;;;;;;4.00;1.77;;;;;;;;;;5014048;28;20045;-67
2023/08/26 06:45:57;;;;;;;3.22;1.55;;;;;;;;;;5005123;28;20049;-67
2023/08/26 06:48:22;;;;;;;3.15;1.55;;;;;;;;;;5004925;28;20042;-67
2023/08/26 06:50:49;;;;;;;4.78;1.48;;;;;;;;;;5001842;28;20034;-67
2023/08/26 06:53:20;;;;;;;2.88;1.42;;;;;;;;;;4995299;28;20030;-67
2023/08/26 06:55:50;;;;;;;3.72;1.60;;;;;;;;;;4999302;28;20403;-67
2023/08/26 06:58:16;;;;;;;3.38;1.60;;;;;;;;;;5006999;28;20030;-67
2023/08/26 07:00:42;;;;;;;2.92;1.67;;;;;;;;;;5006798;28;20041;-67
2023/08/26 07:03:08;;;;;;;1.92;1.23;;;;;;;;;;5007537;28;20495;-67
2023/08/26 07:05:33;;;;;;;4.55;1.70;;;;;;;;;;5006760;28;20045;-67
2023/08/26 07:07:59;;;;;;;2.03;1.50;;;;;;;;;;5006845;28;20029;-67
2023/08/26 07:10:24;;;;;;;4.28;1.65;;;;;;;;;;5006381;28;20038;-67
2023/08/26 07:12:49;;;;;;;2.95;1.50;;;;;;;;;;4998655;28;20052;-67
2023/08/26 07:15:15;;;;;;;2.53;1.52;;;;;;;;;;5005397;28;20428;-67
2023/08/26 07:17:40;;;;;;;6.20;1.70;;;;;;;;;;5008074;28;20136;-67
2023/08/26 07:20:06;;;;;;;6.45;1.88;;;;;;;;;;5007999;28;20121;-67
2023/08/26 07:22:31;;;;;;;3.60;1.70;;;;;;;;;;5009095;28;20407;-67
2023/08/26 07:24:57;;;;;;;2.30;1.40;;;;;;;;;;5008029;28;20046;-67
2023/08/26 07:27:23;;;;;;;3.38;2.08;;;;;;;;;;5008580;28;20072;-67
2023/08/26 07:29:48;;;;;;;2.67;1.50;;;;;;;;;;5002652;28;20076;-67
2023/08/26 07:32:14;;;;;;;5.05;2.00;;;;;;;;;;5027062;28;20080;-67
2023/08/26 07:34:39;;;;;;;2.85;1.73;;;;;;;;;;5028540;28;20021;-67
2023/08/26 07:37:04;;;;;;;2.95;1.58;;;;;;;;;;5025144;28;20045;-66
2023/08/26 07:39:30;;;;;;;3.80;1.40;;;;;;;;;;5020212;28;20081;-67
2023/08/26 07:41:55;;;;;;;3.40;1.67;;;;;;;;;;5011496;28;20137;-66
2023/08/26 07:44:21;;;;;;;4.22;1.58;;;;;;;;;;5001436;28;20069;-67
2023/08/26 07:46:46;;;;;;;1.90;1.27;;;;;;;;;;5004250;28;20046;-67
2023/08/26 07:49:12;;;;;;;5.75;1.38;;;;;;;;;;5028009;28;20486;-67
2023/08/26 07:51:37;;;;;;;4.40;1.60;;;;;;;;;;5032576;28;20037;-69
2023/08/26 07:54:03;;;;;;;4.70;1.55;;;;;;;;;;5021722;28;20040;-68
2023/08/26 07:56:28;;;;;;;3.08;1.70;;;;;;;;;;5024293;28;20106;-67
2023/08/26 07:58:53;;;;;;;1.90;1.55;;;;;;;;;;5027729;28;20108;-68
2023/08/26 08:01:19;;;;;;;4.97;1.60;;;;;;;;;;5026537;28;20057;-68
2023/08/26 08:03:44;;;;;;;3.40;1.70;;;;;;;;;;5026426;28;20240;-68
2023/08/26 08:06:09;;;;;;;3.20;1.60;;;;;;;;;;5022381;28;20033;-68
2023/08/26 08:08:35;;;;;;;2.80;1.40;;;;;;;;;;5032581;28;20049;-68
2023/08/26 08:11:00;;;;;;;2.92;1.55;;;;;;;;;;5027272;28;20064;-69
2023/08/26 08:13:25;;;;;;;2.97;1.73;;;;;;;;;;5002736;28;20034;-68
2023/08/26 08:15:51;;;;;;;2.97;1.30;;;;;;;;;;5021720;28;20025;-67
2023/08/26 08:18:16;;;;;;;3.75;1.45;;;;;;;;;;5023922;28;20041;-67
2023/08/26 08:20:41;;;;;;;1.48;1.08;;;;;;;;;;5025673;28;20640;-67
2023/08/26 08:23:07;;;;;;;2.85;1.40;;;;;;;;;;5027320;28;20053;-67
2023/08/26 08:25:32;;;;;;;2.05;1.40;;;;;;;;;;5014304;28;20040;-67
2023/08/26 08:27:57;;;;;;;2.13;1.38;;;;;;;;;;5020767;28;20038;-67
2023/08/26 08:30:23;;;;;;;3.38;1.42;;;;;;;;;;5006874;28;20050;-68
2023/08/26 08:32:49;;;;;;;5.95;1.50;;;;;;;;;;5001251;28;21028;-68
2023/08/26 08:35:14;;;;;;;5.13;1.65;;;;;;;;;;4994635;28;20062;-68
2023/08/26 08:37:39;;;;;;;2.70;1.48;;;;;;;;;;4990905;28;20030;-68
2023/08/26 08:40:06;;;;;;;2.38;1.40;;;;;;;;;;4983378;28;20046;-68
2023/08/26 08:42:34;;;;;;;3.20;1.60;;;;;;;;;;4988955;28;20036;-69
2023/08/26 08:45:00;;;;;;;2.97;1.80;;;;;;;;;;5003885;28;20058;-68
2023/08/26 08:47:26;;;;;;;4.25;1.40;;;;;;;;;;4998214;28;20041;-69
2023/08/26 08:49:52;;;;;;;2.95;1.52;;;;;;;;;;5001491;28;20022;-68
2023/08/26 08:52:19;;;;;;;4.43;1.70;;;;;;;;;;5004699;28;20121;-68
2023/08/26 08:54:45;;;;;;;2.50;1.63;;;;;;;;;;5018934;28;20041;-70
2023/08/26 08:57:13;;;;;;;3.78;1.40;;;;;;;;;;5021420;28;20128;-68
2023/08/26 08:59:39;;;;;;;2.25;1.40;;;;;;;;;;5022723;28;20034;-69
2023/08/26 09:02:08;;;;;;;2.25;1.35;;;;;;;;;;5001026;28;20092;-68
2023/08/26 09:04:34;;;;;;;2.38;1.50;;;;;;;;;;5006161;28;20030;-68
2023/08/26 09:07:00;;;;;;;2.65;1.42;;;;;;;;;;5005879;28;20034;-67
2023/08/26 09:09:26;;;;;;;2.55;1.42;;;;;;;;;;5006584;28;20045;-68
2023/08/26 09:11:51;;;;;;;2.92;1.42;;;;;;;;;;5005971;28;20052;-68
2023/08/26 09:14:17;;;;;;;2.33;1.27;;;;;;;;;;5006517;28;20061;-67
2023/08/26 09:16:43;;;;;;;2.38;1.33;;;;;;;;;;5006107;28;20030;-67
2023/08/26 09:19:13;;;;;;;3.05;1.38;;;;;;;;;;4988318;28;20057;-67
2023/08/26 09:21:42;;;;;;;2.75;1.40;;;;;;;;;;5006191;28;20042;-68
2023/08/26 09:24:14;;;;;;;2.78;1.60;;;;;;;;;;5006401;28;20042;-67
2023/08/26 09:26:41;;;;;;;2.15;1.42;;;;;;;;;;5006032;28;20084;-67
2023/08/26 09:29:18;;;;;;;2.80;1.30;;;;;;;;;;5006710;28;20101;-67
2023/08/26 09:31:47;;;;;;;4.07;1.50;;;;;;;;;;5024835;28;20073;-66
2023/08/26 09:34:22;;;;;;;2.22;1.30;;;;;;;;;;5014760;28;20048;-67
2023/08/26 09:36:48;;;;;;;1.83;1.30;;;;;;;;;;4991466;28;20041;-67
2023/08/26 09:39:21;;;;;;;3.25;1.27;;;;;;;;;;5043260;27;20405;-67
2023/08/26 09:41:47;;;;;;;2.60;1.25;;;;;;;;;;5022889;28;20034;-67
2023/08/26 09:44:15;;;;;;;2.17;1.20;;;;;;;;;;4993418;28;20038;-67
2023/08/26 09:46:42;;;;;;;2.28;1.20;;;;;;;;;;5007885;28;20102;-67
2023/08/26 09:49:18;;;;;;;2.10;1.30;;;;;;;;;;5017548;28;20061;-68
2023/08/26 09:51:53;;;;;;;2.30;0.95;;;;;;;;;;5005414;28;20041;-68
2023/08/26 09:54:24;;;;;;;3.83;1.30;;;;;;;;;;5009241;28;20034;-67
2023/08/26 09:56:49;;;;;;;2.08;1.20;;;;;;;;;;5008953;28;20534;-68
2023/08/26 09:59:15;;;;;;;2.30;1.20;;;;;;;;;;5020968;28;20112;-68
2023/08/26 10:01:42;;;;;;;3.83;1.20;;;;;;;;;;5005184;28;20519;-66
2023/08/26 10:04:13;;;;;;;1.20;1.10;;;;;;;;;;5004879;28;20041;-68
2023/08/26 10:06:46;;;;;;;2.38;1.10;;;;;;;;;;5020887;28;20072;-67
2023/08/26 10:09:30;;;;;;;1.90;1.20;;;;;;;;;;5021298;28;20140;-68
2023/08/26 10:12:00;;;;;;;1.27;1.10;;;;;;;;;;5020349;28;20124;-68
2023/08/26 10:14:28;;;;;;;4.90;1.10;;;;;;;;;;5020317;28;20596;-68
2023/08/26 10:16:56;;;;;;;1.23;1.10;;;;;;;;;;5020386;28;20732;-68
2023/08/26 10:19:23;;;;;;;2.45;0.93;;;;;;;;;;5021289;28;20056;-68
2023/08/26 10:21:49;;;;;;;0.85;0.82;;;;;;;;;;5020220;28;20048;-68
2023/08/26 10:24:15;;;;;;;1.52;1.00;;;;;;;;;;5020597;28;20062;-67
2023/08/26 10:26:40;;;;;;;2.13;1.27;;;;;;;;;;5020252;28;20145;-68
2023/08/26 10:29:06;;;;;;;1.02;0.85;;;;;;;;;;5020458;28;20047;-69
2023/08/26 10:31:39;;;;;;;2.08;1.00;;;;;;;;;;4994975;28;20022;-68
2023/08/26 10:34:07;;;;;;;2.67;1.30;;;;;;;;;;4991538;28;20042;-68
2023/08/26 10:36:37;;;;;;;2.35;1.20;;;;;;;;;;4991310;28;20046;-68
2023/08/26 10:39:03;;;;;;;1.88;1.00;;;;;;;;;;4991391;28;20183;-68
2023/08/26 10:41:29;;;;;;;1.35;1.00;;;;;;;;;;5012729;28;20041;-68
2023/08/26 10:44:01;;;;;;;1.92;1.10;;;;;;;;;;5019851;28;20061;-68
2023/08/26 10:46:36;;;;;;;3.42;1.10;;;;;;;;;;5007794;28;20435;-68
2023/08/26 10:49:03;;;;;;;2.15;0.90;;;;;;;;;;5016134;28;20045;-68
2023/08/26 10:51:29;;;;;;;1.58;1.00;;;;;;;;;;4999256;28;20064;-67
2023/08/26 10:54:03;;;;;;;0.90;0.73;;;;;;;;;;4994498;28;20038;-68
2023/08/26 10:56:29;;;;;;;2.50;1.10;;;;;;;;;;5008688;28;20045;-68
2023/08/26 10:59:01;;;;;;;3.10;1.20;;;;;;;;;;5012781;28;20061;-67
2023/08/26 11:01:28;;;;;;;1.08;0.90;;;;;;;;;;5007159;28;20085;-68
2023/08/26 11:03:55;;;;;;;1.27;0.93;;;;;;;;;;5007427;28;20076;-67
2023/08/26 11:06:22;;;;;;;1.15;0.80;;;;;;;;;;5007818;28;20547;-67
2023/08/26 11:08:57;;;;;;;1.05;0.90;;;;;;;;;;5007301;28;20038;-67
2023/08/26 11:11:24;;;;;;;1.25;0.90;;;;;;;;;;5006967;28;20092;-67
2023/08/26 11:13:49;;;;;;;1.90;1.00;;;;;;;;;;5006788;28;20062;-68
2023/08/26 11:16:15;;;;;;;1.52;1.00;;;;;;;;;;5007642;28;20064;-67
2023/08/26 11:18:42;;;;;;;1.95;1.10;;;;;;;;;;5006707;28;20507;-67
2023/08/26 11:21:08;;;;;;;1.40;0.98;;;;;;;;;;5006051;28;20034;-67
2023/08/26 11:23:34;;;;;;;2.38;1.10;;;;;;;;;;5004923;28;20038;-67
2023/08/26 11:26:00;;;;;;;1.92;1.05;;;;;;;;;;5006348;28;20026;-67
2023/08/26 11:28:27;;;;;;;1.98;1.10;;;;;;;;;;5007454;28;20029;-68
2023/08/26 11:30:53;;;;;;;1.40;0.85;;;;;;;;;;5006650;28;20042;-67
2023/08/26 11:33:20;;;;;;;2.92;1.00;;;;;;;;;;5007607;28;20546;-67
2023/08/26 11:35:46;;;;;;;1.15;0.85;;;;;;;;;;5006764;28;20037;-68
2023/08/26 11:38:12;;;;;;;1.45;0.98;;;;;;;;;;5004428;28;20074;-68
2023/08/26 11:40:40;;;;;;;0.98;0.88;;;;;;;;;;4991503;28;20022;-68
2023/08/26 11:43:10;;;;;;;1.55;0.90;;;;;;;;;;4999354;28;20463;-68
2023/08/26 11:45:37;;;;;;;2.35;1.10;;;;;;;;;;4998141;28;20467;-67
2023/08/26 11:48:03;;;;;;;1.65;0.90;;;;;;;;;;4988234;28;20384;-68
2023/08/26 11:50:29;;;;;;;1.63;1.10;;;;;;;;;;4979899;28;20043;-68
2023/08/26 11:52:55;;;;;;;3.15;1.13;;;;;;;;;;4974858;28;20033;-69
2023/08/26 11:55:21;;;;;;;1.50;0.95;;;;;;;;;;5000174;28;20038;-69
2023/08/26 11:57:52;;;;;;;2.53;1.00;;;;;;;;;;5006419;28;20160;-68
2023/08/26 12:00:19;;;;;;;1.60;1.08;;;;;;;;;;5003678;28;20147;-68
2023/08/26 12:02:51;;;;;;;2.00;1.20;;;;;;;;;;4992003;28;20050;-68
2023/08/26 12:05:17;;;;;;;0.80;0.80;;;;;;;;;;5005605;28;20107;-68
2023/08/26 12:07:47;;;;;;;0.85;0.80;;;;;;;;;;5005615;28;20060;-68
2023/08/26 12:10:13;;;;;;;0.73;0.73;;;;;;;;;;5006145;28;20068;-68
2023/08/26 12:12:40;;;;;;;2.40;1.00;;;;;;;;;;5006375;28;20049;-69
2023/08/26 12:15:08;;;;;;;0.80;0.80;;;;;;;;;;5006250;28;20068;-68
2023/08/26 12:17:51;;;;;;;1.95;0.80;;;;;;;;;;5004460;28;20037;-68
2023/08/26 12:20:24;;;;;;;2.50;1.08;;;;;;;;;;4982198;28;20058;-68
2023/08/26 12:22:51;;;;;;;2.30;1.00;;;;;;;;;;5007554;28;20037;-68
2023/08/26 12:25:27;;;;;;;2.08;0.93;;;;;;;;;;5011968;28;20036;-68
2023/08/26 12:28:19;;;;;;;1.20;0.90;;;;;;;;;;5008870;28;20037;-68
2023/08/26 12:30:46;;;;;;;1.23;0.90;;;;;;;;;;4981057;28;20500;-69
2023/08/26 12:33:12;;;;;;;1.60;0.90;;;;;;;;;;4985627;28;20101;-68
2023/08/26 12:35:38;;;;;;;0.70;0.70;;;;;;;;;;4966082;28;20096;-67
2023/08/26 12:38:05;;;;;;;1.05;0.80;;;;;;;;;;4970468;28;20061;-68
2023/08/26 12:40:34;;;;;;;2.10;0.90;;;;;;;;;;4977373;28;20047;-68
2023/08/26 12:43:00;;;;;;;1.73;0.82;;;;;;;;;;5002671;28;20048;-68
2023/08/26 12:45:26;;;;;;;1.42;0.80;;;;;;;;;;5001570;28;20042;-68
2023/08/26 12:47:52;;;;;;;1.35;0.70;;;;;;;;;;4995230;28;20057;-69
2023/08/26 12:50:18;;;;;;;2.05;0.80;;;;;;;;;;5003835;28;20125;-69
2023/08/26 12:52:43;;;;;;;1.40;0.90;;;;;;;;;;4986450;28;20444;-68
2023/08/26 12:55:11;;;;;;;1.05;0.82;;;;;;;;;;4997978;28;20141;-69
2023/08/26 12:57:36;;;;;;;2.75;1.05;;;;;;;;;;4992263;28;20038;-69
2023/08/26 13:00:04;;;;;;;2.63;1.30;;;;;;;;;;4988902;28;20034;-69
2023/08/26 13:02:30;;;;;;;1.80;0.85;;;;;;;;;;4989263;28;20037;-69
2023/08/26 13:04:56;;;;;;;2.92;0.73;;;;;;;;;;4996562;28;20034;-69
2023/08/26 13:07:21;;;;;;;1.13;0.90;;;;;;;;;;4992197;28;20028;-69
2023/08/26 13:09:48;;;;;;;0.90;0.70;;;;;;;;;;5004415;28;20651;-69
2023/08/26 13:12:14;;;;;;;1.80;0.80;;;;;;;;;;5004631;28;20048;-69
2023/08/26 13:14:39;;;;;;;2.28;1.00;;;;;;;;;;5004497;28;20782;-69
2023/08/26 13:17:05;;;;;;;1.42;0.88;;;;;;;;;;5004352;28;20037;-70
2023/08/26 13:19:31;;;;;;;1.90;1.23;;;;;;;;;;4986530;28;20027;-69
2023/08/26 13:21:56;;;;;;;1.65;0.82;;;;;;;;;;4976449;28;20582;-69
2023/08/26 13:24:21;;;;;;;3.70;1.20;;;;;;;;;;4997845;28;20040;-69
2023/08/26 13:26:47;;;;;;;1.48;0.90;;;;;;;;;;5003966;28;20038;-68
2023/08/26 13:29:12;;;;;;;3.33;1.10;;;;;;;;;;4974794;28;20137;-68
2023/08/26 13:31:38;;;;;;;3.25;1.27;;;;;;;;;;4988392;28;20042;-69
2023/08/26 13:34:03;;;;;;;2.60;1.02;;;;;;;;;;5000149;28;20497;-69
2023/08/26 13:36:29;;;;;;;2.78;1.30;;;;;;;;;;4999769;28;20415;-69
2023/08/26 13:38:54;;;;;;;1.60;1.20;;;;;;;;;;5004443;28;20788;-69
2023/08/26 13:41:19;;;;;;;2.40;1.30;;;;;;;;;;4999368;28;20160;-70
2023/08/26 13:43:45;;;;;;;4.68;1.30;;;;;;;;;;4982551;28;20025;-69
2023/08/26 13:46:10;;;;;;;4.38;1.23;;;;;;;;;;4980563;28;20121;-69
2023/08/26 13:48:35;;;;;;;2.30;1.20;;;;;;;;;;4978627;28;20042;-69
2023/08/26 13:51:01;;;;;;;3.22;1.25;;;;;;;;;;4985687;28;20038;-69
2023/08/26 13:53:26;;;;;;;2.05;1.42;;;;;;;;;;4982007;28;20034;-69
2023/08/26 13:55:57;;;;;;;3.28;1.20;;;;;;;;;;4978802;28;20033;-68
2023/08/26 13:58:25;;;;;;;1.30;1.10;;;;;;;;;;4970921;28;20367;-68
2023/08/26 14:00:55;;;;;;;1.33;1.17;;;;;;;;;;4990849;28;20157;-69
2023/08/26 14:03:20;;;;;;;2.97;1.20;;;;;;;;;;4992419;28;20439;-69
2023/08/26 14:05:46;;;;;;;2.75;1.13;;;;;;;;;;5005293;28;20103;-69
2023/08/26 14:08:12;;;;;;;1.10;1.00;;;;;;;;;;5004927;28;20629;-68
2023/08/26 14:10:37;;;;;;;3.10;1.10;;;;;;;;;;4999577;28;20072;-70
2023/08/26 14:13:03;;;;;;;2.22;1.30;;;;;;;;;;4998560;28;20050;-70
2023/08/26 14:15:29;;;;;;;1.35;1.05;;;;;;;;;;5004369;28;20030;-69
2023/08/26 14:17:54;;;;;;;1.25;1.15;;;;;;;;;;4987599;28;20516;-69
2023/08/26 14:20:19;;;;;;;2.92;1.17;;;;;;;;;;4991874;28;20046;-69
2023/08/26 14:22:45;;;;;;;1.67;1.10;;;;;;;;;;5005076;28;20033;-69
2023/08/26 14:25:10;;;;;;;3.13;1.05;;;;;;;;;;5001601;28;20637;-70
2023/08/26 14:27:36;;;;;;;1.38;1.00;;;;;;;;;;4992847;28;20042;-69
2023/08/26 14:30:01;;;;;;;1.30;0.80;;;;;;;;;;4977894;28;20093;-69
2023/08/26 14:32:27;;;;;;;3.05;1.10;;;;;;;;;;4980122;28;20038;-70
2023/08/26 14:34:52;;;;;;;1.67;1.00;;;;;;;;;;4988814;28;20495;-69
2023/08/26 14:37:17;;;;;;;1.17;0.80;;;;;;;;;;4990433;28;20116;-70
2023/08/26 14:39:43;;;;;;;0.70;0.70;;;;;;;;;;4989047;28;20487;-70